sensor_id;sensor_type;location;lat;lon;timestamp;P1;durP1;ratioP1;P2;durP2;ratioP2
22415;SDS011;12204;50.600;4.608;2023-10-13T00:00:32;7.45;;;2.50;;
22415;SDS011;12204;50.600;4.608;2023-10-13T00:05:38;7.93;;;2.40;;
22415;SDS011;12204;50.600;4.608;2023-10-13T00:10:44;7.38;;;2.65;;
22415;SDS011;12204;50.600;4.608;2023-10-13T00:15:49;6.22;;;2.60;;
22415;SDS011;12204;50.600;4.608;2023-10-13T00:20:59;5.32;;;2.55;;
22415;SDS011;12204;50.600;4.608;2023-10-13T00:26:06;7.72;;;2.60;;
22415;SDS011;12204;50.600;4.608;2023-10-13T00:31:11;6.30;;;2.60;;
22415;SDS011;12204;50.600;4.608;2023-10-13T00:36:16;6.28;;;2.40;;
22415;SDS011;12204;50.600;4.608;2023-10-13T00:41:22;6.43;;;2.30;;
22415;SDS011;12204;50.600;4.608;2023-10-13T00:46:46;5.70;;;2.33;;
22415;SDS011;12204;50.600;4.608;2023-10-13T00:51:56;8.65;;;2.40;;
22415;SDS011;12204;50.600;4.608;2023-10-13T00:57:01;5.78;;;2.28;;
22415;SDS011;12204;50.600;4.608;2023-10-13T01:02:13;5.75;;;2.17;;
22415;SDS011;12204;50.600;4.608;2023-10-13T01:07:33;6.03;;;2.55;;
22415;SDS011;12204;50.600;4.608;2023-10-13T01:12:40;8.70;;;2.42;;
22415;SDS011;12204;50.600;4.608;2023-10-13T01:17:45;5.17;;;2.30;;
22415;SDS011;12204;50.600;4.608;2023-10-13T01:22:49;4.80;;;2.30;;
22415;SDS011;12204;50.600;4.608;2023-10-13T01:27:58;5.70;;;2.33;;
22415;SDS011;12204;50.600;4.608;2023-10-13T01:33:02;6.18;;;2.47;;
22415;SDS011;12204;50.600;4.608;2023-10-13T01:38:06;6.18;;;2.20;;
22415;SDS011;12204;50.600;4.608;2023-10-13T01:43:11;7.15;;;2.05;;
22415;SDS011;12204;50.600;4.608;2023-10-13T01:48:16;5.93;;;2.17;;
22415;SDS011;12204;50.600;4.608;2023-10-13T01:53:23;4.65;;;1.88;;
22415;SDS011;12204;50.600;4.608;2023-10-13T01:58:31;12.90;;;2.50;;
22415;SDS011;12204;50.600;4.608;2023-10-13T02:03:36;5.80;;;2.00;;
22415;SDS011;12204;50.600;4.608;2023-10-13T02:08:47;5.53;;;2.15;;
22415;SDS011;12204;50.600;4.608;2023-10-13T02:13:59;5.45;;;2.30;;
22415;SDS011;12204;50.600;4.608;2023-10-13T02:19:03;5.18;;;2.05;;
22415;SDS011;12204;50.600;4.608;2023-10-13T02:24:07;7.65;;;2.30;;
22415;SDS011;12204;50.600;4.608;2023-10-13T02:29:16;6.07;;;2.00;;
22415;SDS011;12204;50.600;4.608;2023-10-13T02:34:20;5.70;;;2.08;;
22415;SDS011;12204;50.600;4.608;2023-10-13T02:39:25;4.63;;;1.83;;
22415;SDS011;12204;50.600;4.608;2023-10-13T02:44:30;6.57;;;2.15;;
22415;SDS011;12204;50.600;4.608;2023-10-13T02:49:34;7.25;;;2.08;;
22415;SDS011;12204;50.600;4.608;2023-10-13T02:54:39;5.88;;;2.17;;
22415;SDS011;12204;50.600;4.608;2023-10-13T02:59:50;4.93;;;1.85;;
22415;SDS011;12204;50.600;4.608;2023-10-13T03:04:58;4.75;;;2.08;;
22415;SDS011;12204;50.600;4.608;2023-10-13T03:10:10;5.13;;;1.85;;
22415;SDS011;12204;50.600;4.608;2023-10-13T03:15:18;5.10;;;1.80;;
22415;SDS011;12204;50.600;4.608;2023-10-13T03:20:23;5.18;;;2.00;;
22415;SDS011;12204;50.600;4.608;2023-10-13T03:25:32;5.20;;;1.77;;
22415;SDS011;12204;50.600;4.608;2023-10-13T03:30:45;9.88;;;2.03;;
22415;SDS011;12204;50.600;4.608;2023-10-13T03:35:54;6.38;;;1.80;;
22415;SDS011;12204;50.600;4.608;2023-10-13T03:41:06;7.45;;;2.40;;
22415;SDS011;12204;50.600;4.608;2023-10-13T03:46:21;8.25;;;1.92;;
22415;SDS011;12204;50.600;4.608;2023-10-13T03:51:24;5.10;;;1.98;;
22415;SDS011;12204;50.600;4.608;2023-10-13T03:56:33;5.53;;;1.83;;
22415;SDS011;12204;50.600;4.608;2023-10-13T04:01:43;5.43;;;1.90;;
22415;SDS011;12204;50.600;4.608;2023-10-13T04:06:48;4.95;;;1.85;;
22415;SDS011;12204;50.600;4.608;2023-10-13T04:12:14;5.78;;;1.90;;
22415;SDS011;12204;50.600;4.608;2023-10-13T04:17:43;5.25;;;1.80;;
22415;SDS011;12204;50.600;4.608;2023-10-13T04:22:48;4.90;;;2.00;;
22415;SDS011;12204;50.600;4.608;2023-10-13T04:28:20;5.50;;;1.90;;
22415;SDS011;12204;50.600;4.608;2023-10-13T04:33:52;6.75;;;1.75;;
22415;SDS011;12204;50.600;4.608;2023-10-13T04:39:35;6.77;;;1.80;;
22415;SDS011;12204;50.600;4.608;2023-10-13T04:44:49;6.60;;;1.83;;
22415;SDS011;12204;50.600;4.608;2023-10-13T04:50:04;7.07;;;1.65;;
22415;SDS011;12204;50.600;4.608;2023-10-13T04:55:25;5.18;;;1.85;;
22415;SDS011;12204;50.600;4.608;2023-10-13T05:00:49;6.60;;;1.90;;
22415;SDS011;12204;50.600;4.608;2023-10-13T05:06:14;7.63;;;1.90;;
22415;SDS011;12204;50.600;4.608;2023-10-13T05:11:32;5.05;;;1.83;;
22415;SDS011;12204;50.600;4.608;2023-10-13T05:16:52;7.40;;;1.77;;
22415;SDS011;12204;50.600;4.608;2023-10-13T05:22:15;6.30;;;1.60;;
22415;SDS011;12204;50.600;4.608;2023-10-13T05:27:36;5.97;;;1.70;;
22415;SDS011;12204;50.600;4.608;2023-10-13T05:32:57;4.00;;;1.45;;
22415;SDS011;12204;50.600;4.608;2023-10-13T05:38:19;6.20;;;1.70;;
22415;SDS011;12204;50.600;4.608;2023-10-13T05:43:41;5.72;;;1.70;;
22415;SDS011;12204;50.600;4.608;2023-10-13T05:49:02;5.88;;;1.70;;
22415;SDS011;12204;50.600;4.608;2023-10-13T05:54:29;4.63;;;1.87;;
22415;SDS011;12204;50.600;4.608;2023-10-13T05:59:50;4.60;;;1.60;;
22415;SDS011;12204;50.600;4.608;2023-10-13T06:05:12;4.70;;;1.67;;
22415;SDS011;12204;50.600;4.608;2023-10-13T06:10:35;6.00;;;1.70;;
22415;SDS011;12204;50.600;4.608;2023-10-13T06:15:57;7.18;;;1.50;;
22415;SDS011;12204;50.600;4.608;2023-10-13T06:21:19;5.15;;;1.60;;
22415;SDS011;12204;50.600;4.608;2023-10-13T06:26:42;5.90;;;1.70;;
22415;SDS011;12204;50.600;4.608;2023-10-13T06:32:03;5.50;;;1.63;;
22415;SDS011;12204;50.600;4.608;2023-10-13T06:37:15;6.95;;;1.70;;
22415;SDS011;12204;50.600;4.608;2023-10-13T06:42:27;6.03;;;1.60;;
22415;SDS011;12204;50.600;4.608;2023-10-13T06:47:32;7.55;;;1.60;;
22415;SDS011;12204;50.600;4.608;2023-10-13T06:52:41;5.93;;;1.60;;
22415;SDS011;12204;50.600;4.608;2023-10-13T06:57:46;5.45;;;1.67;;
22415;SDS011;12204;50.600;4.608;2023-10-13T07:08:06;6.30;;;1.90;;
22415;SDS011;12204;50.600;4.608;2023-10-13T07:13:17;17.27;;;2.40;;
22415;SDS011;12204;50.600;4.608;2023-10-13T07:18:21;11.75;;;2.50;;
22415;SDS011;12204;50.600;4.608;2023-10-13T07:23:24;20.63;;;2.65;;
22415;SDS011;12204;50.600;4.608;2023-10-13T07:28:29;16.38;;;2.67;;
22415;SDS011;12204;50.600;4.608;2023-10-13T07:33:37;12.43;;;2.70;;
22415;SDS011;12204;50.600;4.608;2023-10-13T07:38:42;13.40;;;2.50;;
22415;SDS011;12204;50.600;4.608;2023-10-13T07:44:04;10.18;;;2.97;;
22415;SDS011;12204;50.600;4.608;2023-10-13T07:49:08;16.25;;;3.00;;
22415;SDS011;12204;50.600;4.608;2023-10-13T07:54:12;11.57;;;3.00;;
22415;SDS011;12204;50.600;4.608;2023-10-13T07:59:24;11.07;;;3.08;;
22415;SDS011;12204;50.600;4.608;2023-10-13T08:04:29;13.65;;;3.42;;
22415;SDS011;12204;50.600;4.608;2023-10-13T08:14:43;12.23;;;3.90;;
22415;SDS011;12204;50.600;4.608;2023-10-13T08:19:46;13.73;;;4.10;;
22415;SDS011;12204;50.600;4.608;2023-10-13T08:24:52;11.68;;;4.28;;
22415;SDS011;12204;50.600;4.608;2023-10-13T08:30:18;11.82;;;4.10;;
22415;SDS011;12204;50.600;4.608;2023-10-13T08:35:38;10.63;;;4.07;;
22415;SDS011;12204;50.600;4.608;2023-10-13T08:40:57;9.57;;;4.07;;
22415;SDS011;12204;50.600;4.608;2023-10-13T08:46:21;11.43;;;4.63;;
22415;SDS011;12204;50.600;4.608;2023-10-13T08:51:33;13.93;;;5.25;;
22415;SDS011;12204;50.600;4.608;2023-10-13T08:56:50;15.93;;;5.90;;
22415;SDS011;12204;50.600;4.608;2023-10-13T09:01:59;47.42;;;8.45;;
22415;SDS011;12204;50.600;4.608;2023-10-13T09:07:17;25.65;;;6.95;;
22415;SDS011;12204;50.600;4.608;2023-10-13T09:12:27;22.00;;;6.15;;
22415;SDS011;12204;50.600;4.608;2023-10-13T09:17:41;23.80;;;6.10;;
22415;SDS011;12204;50.600;4.608;2023-10-13T09:22:54;21.00;;;6.50;;
22415;SDS011;12204;50.600;4.608;2023-10-13T09:28:10;18.92;;;7.65;;
22415;SDS011;12204;50.600;4.608;2023-10-13T09:33:21;23.35;;;11.05;;
22415;SDS011;12204;50.600;4.608;2023-10-13T09:38:35;20.90;;;10.43;;
22415;SDS011;12204;50.600;4.608;2023-10-13T09:43:41;25.77;;;10.57;;
22415;SDS011;12204;50.600;4.608;2023-10-13T09:48:47;18.15;;;8.85;;
22415;SDS011;12204;50.600;4.608;2023-10-13T09:54:06;18.88;;;8.02;;
22415;SDS011;12204;50.600;4.608;2023-10-13T09:59:35;20.15;;;8.32;;
22415;SDS011;12204;50.600;4.608;2023-10-13T10:04:55;21.13;;;7.75;;
22415;SDS011;12204;50.600;4.608;2023-10-13T10:10:20;16.83;;;6.70;;
22415;SDS011;12204;50.600;4.608;2023-10-13T10:15:26;17.38;;;6.65;;
22415;SDS011;12204;50.600;4.608;2023-10-13T10:20:38;17.00;;;6.50;;
22415;SDS011;12204;50.600;4.608;2023-10-13T10:25:44;22.77;;;6.73;;
22415;SDS011;12204;50.600;4.608;2023-10-13T10:30:47;20.30;;;6.30;;
22415;SDS011;12204;50.600;4.608;2023-10-13T10:35:59;16.17;;;5.78;;
22415;SDS011;12204;50.600;4.608;2023-10-13T10:41:04;18.67;;;5.97;;
22415;SDS011;12204;50.600;4.608;2023-10-13T10:46:08;20.70;;;5.68;;
22415;SDS011;12204;50.600;4.608;2023-10-13T10:51:18;17.77;;;5.47;;
22415;SDS011;12204;50.600;4.608;2023-10-13T10:56:26;18.23;;;5.05;;
22415;SDS011;12204;50.600;4.608;2023-10-13T11:01:42;21.58;;;5.82;;
22415;SDS011;12204;50.600;4.608;2023-10-13T11:06:51;14.50;;;4.70;;
22415;SDS011;12204;50.600;4.608;2023-10-13T11:17:19;15.45;;;4.63;;
22415;SDS011;12204;50.600;4.608;2023-10-13T11:22:29;21.85;;;5.07;;
22415;SDS011;12204;50.600;4.608;2023-10-13T11:27:43;15.00;;;4.60;;
22415;SDS011;12204;50.600;4.608;2023-10-13T11:32:57;15.00;;;4.95;;
22415;SDS011;12204;50.600;4.608;2023-10-13T11:38:08;16.98;;;5.15;;
22415;SDS011;12204;50.600;4.608;2023-10-13T11:43:15;17.88;;;5.22;;
22415;SDS011;12204;50.600;4.608;2023-10-13T11:48:19;13.88;;;4.97;;
22415;SDS011;12204;50.600;4.608;2023-10-13T11:53:37;18.00;;;5.20;;
22415;SDS011;12204;50.600;4.608;2023-10-13T11:58:41;20.25;;;4.95;;
22415;SDS011;12204;50.600;4.608;2023-10-13T12:03:45;17.88;;;5.53;;
22415;SDS011;12204;50.600;4.608;2023-10-13T12:09:10;18.20;;;4.88;;
22415;SDS011;12204;50.600;4.608;2023-10-13T12:14:21;20.73;;;5.20;;
22415;SDS011;12204;50.600;4.608;2023-10-13T12:19:30;16.77;;;4.78;;
22415;SDS011;12204;50.600;4.608;2023-10-13T12:24:37;17.40;;;4.82;;
22415;SDS011;12204;50.600;4.608;2023-10-13T12:29:44;14.77;;;5.03;;
22415;SDS011;12204;50.600;4.608;2023-10-13T12:34:48;18.17;;;5.07;;
22415;SDS011;12204;50.600;4.608;2023-10-13T12:40:20;15.20;;;5.07;;
22415;SDS011;12204;50.600;4.608;2023-10-13T12:45:41;15.40;;;5.00;;
22415;SDS011;12204;50.600;4.608;2023-10-13T12:51:03;14.02;;;5.05;;
22415;SDS011;12204;50.600;4.608;2023-10-13T12:56:22;19.17;;;4.85;;
22415;SDS011;12204;50.600;4.608;2023-10-13T13:01:28;12.57;;;4.63;;
22415;SDS011;12204;50.600;4.608;2023-10-13T13:06:35;16.23;;;5.03;;
22415;SDS011;12204;50.600;4.608;2023-10-13T13:11:43;11.25;;;4.57;;
22415;SDS011;12204;50.600;4.608;2023-10-13T13:16:50;15.27;;;4.93;;
22415;SDS011;12204;50.600;4.608;2023-10-13T13:21:53;14.40;;;5.32;;
22415;SDS011;12204;50.600;4.608;2023-10-13T13:26:58;11.82;;;5.03;;
22415;SDS011;12204;50.600;4.608;2023-10-13T13:32:04;14.90;;;4.93;;
22415;SDS011;12204;50.600;4.608;2023-10-13T13:37:18;19.60;;;5.13;;
22415;SDS011;12204;50.600;4.608;2023-10-13T13:42:23;16.65;;;4.88;;
22415;SDS011;12204;50.600;4.608;2023-10-13T13:47:27;14.10;;;4.93;;
22415;SDS011;12204;50.600;4.608;2023-10-13T13:52:31;12.25;;;4.40;;
22415;SDS011;12204;50.600;4.608;2023-10-13T13:57:48;12.20;;;4.93;;
22415;SDS011;12204;50.600;4.608;2023-10-13T14:02:52;9.85;;;4.75;;
22415;SDS011;12204;50.600;4.608;2023-10-13T14:07:57;13.00;;;4.80;;
22415;SDS011;12204;50.600;4.608;2023-10-13T14:13:02;10.45;;;4.60;;
22415;SDS011;12204;50.600;4.608;2023-10-13T14:18:14;11.45;;;4.53;;
22415;SDS011;12204;50.600;4.608;2023-10-13T14:23:19;12.23;;;4.80;;
22415;SDS011;12204;50.600;4.608;2023-10-13T14:28:25;11.75;;;4.90;;
22415;SDS011;12204;50.600;4.608;2023-10-13T14:33:36;11.80;;;4.95;;
22415;SDS011;12204;50.600;4.608;2023-10-13T14:38:40;13.80;;;4.90;;
22415;SDS011;12204;50.600;4.608;2023-10-13T14:46:53;11.02;;;4.60;;
22415;SDS011;12204;50.600;4.608;2023-10-13T14:51:57;13.23;;;5.05;;
22415;SDS011;12204;50.600;4.608;2023-10-13T14:57:01;11.00;;;4.68;;
22415;SDS011;12204;50.600;4.608;2023-10-13T15:02:06;14.05;;;5.18;;
22415;SDS011;12204;50.600;4.608;2023-10-13T15:07:10;12.63;;;4.78;;
22415;SDS011;12204;50.600;4.608;2023-10-13T15:12:13;9.98;;;4.63;;
22415;SDS011;12204;50.600;4.608;2023-10-13T15:17:25;12.13;;;4.70;;
22415;SDS011;12204;50.600;4.608;2023-10-13T15:22:29;13.80;;;4.55;;
22415;SDS011;12204;50.600;4.608;2023-10-13T15:27:36;11.50;;;5.28;;
22415;SDS011;12204;50.600;4.608;2023-10-13T15:32:45;15.32;;;4.80;;
22415;SDS011;12204;50.600;4.608;2023-10-13T15:37:50;12.77;;;4.63;;
22415;SDS011;12204;50.600;4.608;2023-10-13T15:42:54;12.80;;;4.72;;
22415;SDS011;12204;50.600;4.608;2023-10-13T15:48:02;14.13;;;4.87;;
22415;SDS011;12204;50.600;4.608;2023-10-13T15:53:11;15.32;;;5.05;;
22415;SDS011;12204;50.600;4.608;2023-10-13T15:58:15;14.63;;;4.63;;
22415;SDS011;12204;50.600;4.608;2023-10-13T16:03:20;20.58;;;4.65;;
22415;SDS011;12204;50.600;4.608;2023-10-13T16:08:24;12.93;;;4.50;;
22415;SDS011;12204;50.600;4.608;2023-10-13T16:13:28;14.18;;;4.82;;
22415;SDS011;12204;50.600;4.608;2023-10-13T16:18:33;14.98;;;4.47;;
22415;SDS011;12204;50.600;4.608;2023-10-13T16:23:37;16.98;;;4.78;;
22415;SDS011;12204;50.600;4.608;2023-10-13T16:28:41;11.27;;;4.38;;
22415;SDS011;12204;50.600;4.608;2023-10-13T16:33:46;14.15;;;4.50;;
22415;SDS011;12204;50.600;4.608;2023-10-13T16:38:50;14.98;;;4.88;;
22415;SDS011;12204;50.600;4.608;2023-10-13T16:43:58;13.80;;;4.90;;
22415;SDS011;12204;50.600;4.608;2023-10-13T16:49:09;14.13;;;4.90;;
22415;SDS011;12204;50.600;4.608;2023-10-13T16:54:13;18.58;;;4.88;;
22415;SDS011;12204;50.600;4.608;2023-10-13T16:59:17;20.98;;;5.00;;
22415;SDS011;12204;50.600;4.608;2023-10-13T17:04:22;14.95;;;5.30;;
22415;SDS011;12204;50.600;4.608;2023-10-13T17:09:29;15.18;;;4.93;;
22415;SDS011;12204;50.600;4.608;2023-10-13T17:14:35;12.13;;;5.32;;
22415;SDS011;12204;50.600;4.608;2023-10-13T17:19:43;11.80;;;4.55;;
22415;SDS011;12204;50.600;4.608;2023-10-13T17:24:51;13.30;;;4.88;;
22415;SDS011;12204;50.600;4.608;2023-10-13T17:29:55;12.18;;;4.60;;
22415;SDS011;12204;50.600;4.608;2023-10-13T17:35:00;12.38;;;4.47;;
22415;SDS011;12204;50.600;4.608;2023-10-13T17:40:04;13.90;;;4.60;;
22415;SDS011;12204;50.600;4.608;2023-10-13T17:45:10;13.98;;;4.60;;
22415;SDS011;12204;50.600;4.608;2023-10-13T17:50:19;11.60;;;4.75;;
22415;SDS011;12204;50.600;4.608;2023-10-13T17:55:23;12.00;;;4.55;;
22415;SDS011;12204;50.600;4.608;2023-10-13T18:00:28;11.95;;;4.45;;
22415;SDS011;12204;50.600;4.608;2023-10-13T18:05:33;13.70;;;4.88;;
22415;SDS011;12204;50.600;4.608;2023-10-13T18:10:39;18.40;;;4.70;;
22415;SDS011;12204;50.600;4.608;2023-10-13T18:15:45;11.07;;;4.43;;
22415;SDS011;12204;50.600;4.608;2023-10-13T18:20:59;11.43;;;4.57;;
22415;SDS011;12204;50.600;4.608;2023-10-13T18:26:04;11.95;;;4.60;;
22415;SDS011;12204;50.600;4.608;2023-10-13T18:31:08;10.85;;;4.57;;
22415;SDS011;12204;50.600;4.608;2023-10-13T18:36:15;11.93;;;4.63;;
22415;SDS011;12204;50.600;4.608;2023-10-13T18:41:20;12.65;;;4.70;;
22415;SDS011;12204;50.600;4.608;2023-10-13T18:46:24;11.18;;;4.43;;
22415;SDS011;12204;50.600;4.608;2023-10-13T18:51:29;11.88;;;4.70;;
22415;SDS011;12204;50.600;4.608;2023-10-13T18:56:34;10.93;;;4.65;;
22415;SDS011;12204;50.600;4.608;2023-10-13T19:01:37;10.27;;;4.32;;
22415;SDS011;12204;50.600;4.608;2023-10-13T19:06:42;11.82;;;4.30;;
22415;SDS011;12204;50.600;4.608;2023-10-13T19:11:49;10.43;;;4.70;;
22415;SDS011;12204;50.600;4.608;2023-10-13T19:16:57;8.95;;;4.40;;
22415;SDS011;12204;50.600;4.608;2023-10-13T19:22:02;9.88;;;4.43;;
22415;SDS011;12204;50.600;4.608;2023-10-13T19:27:08;10.40;;;4.30;;
22415;SDS011;12204;50.600;4.608;2023-10-13T19:32:11;10.18;;;4.22;;
22415;SDS011;12204;50.600;4.608;2023-10-13T19:37:16;10.32;;;3.97;;
22415;SDS011;12204;50.600;4.608;2023-10-13T19:42:19;9.68;;;4.10;;
22415;SDS011;12204;50.600;4.608;2023-10-13T19:47:22;11.52;;;4.05;;
22415;SDS011;12204;50.600;4.608;2023-10-13T19:52:27;12.23;;;4.05;;
22415;SDS011;12204;50.600;4.608;2023-10-13T19:57:31;12.45;;;4.32;;
22415;SDS011;12204;50.600;4.608;2023-10-13T20:02:36;9.40;;;4.03;;
22415;SDS011;12204;50.600;4.608;2023-10-13T20:07:45;10.15;;;3.75;;
22415;SDS011;12204;50.600;4.608;2023-10-13T20:12:49;9.48;;;3.70;;
22415;SDS011;12204;50.600;4.608;2023-10-13T20:17:53;8.80;;;3.50;;
22415;SDS011;12204;50.600;4.608;2023-10-13T20:22:58;10.25;;;3.50;;
22415;SDS011;12204;50.600;4.608;2023-10-13T20:28:01;9.75;;;3.75;;
22415;SDS011;12204;50.600;4.608;2023-10-13T20:33:05;10.10;;;3.90;;
22415;SDS011;12204;50.600;4.608;2023-10-13T20:38:13;8.45;;;3.30;;
22415;SDS011;12204;50.600;4.608;2023-10-13T20:43:19;10.07;;;3.92;;
22415;SDS011;12204;50.600;4.608;2023-10-13T20:48:25;12.85;;;3.67;;
22415;SDS011;12204;50.600;4.608;2023-10-13T20:53:36;8.98;;;3.60;;
22415;SDS011;12204;50.600;4.608;2023-10-13T20:58:39;11.40;;;3.53;;
22415;SDS011;12204;50.600;4.608;2023-10-13T21:03:47;9.35;;;3.70;;
22415;SDS011;12204;50.600;4.608;2023-10-13T21:08:53;7.45;;;3.50;;
22415;SDS011;12204;50.600;4.608;2023-10-13T21:14:00;8.80;;;3.67;;
22415;SDS011;12204;50.600;4.608;2023-10-13T21:19:04;11.15;;;3.15;;
22415;SDS011;12204;50.600;4.608;2023-10-13T21:24:09;7.40;;;3.22;;
22415;SDS011;12204;50.600;4.608;2023-10-13T21:29:12;7.50;;;3.58;;
22415;SDS011;12204;50.600;4.608;2023-10-13T21:34:18;9.43;;;3.42;;
22415;SDS011;12204;50.600;4.608;2023-10-13T21:39:26;6.97;;;3.40;;
22415;SDS011;12204;50.600;4.608;2023-10-13T21:44:48;8.40;;;3.60;;
22415;SDS011;12204;50.600;4.608;2023-10-13T21:49:57;8.27;;;3.78;;
22415;SDS011;12204;50.600;4.608;2023-10-13T21:55:02;9.40;;;3.55;;
22415;SDS011;12204;50.600;4.608;2023-10-13T22:00:06;8.15;;;3.42;;
22415;SDS011;12204;50.600;4.608;2023-10-13T22:05:22;7.60;;;3.25;;
22415;SDS011;12204;50.600;4.608;2023-10-13T22:10:27;13.57;;;3.42;;
22415;SDS011;12204;50.600;4.608;2023-10-13T22:15:33;13.68;;;3.30;;
22415;SDS011;12204;50.600;4.608;2023-10-13T22:20:41;8.63;;;3.30;;
22415;SDS011;12204;50.600;4.608;2023-10-13T22:25:47;7.72;;;3.47;;
22415;SDS011;12204;50.600;4.608;2023-10-13T22:30:50;13.50;;;3.53;;
22415;SDS011;12204;50.600;4.608;2023-10-13T22:35:55;8.25;;;3.05;;
22415;SDS011;12204;50.600;4.608;2023-10-13T22:41:01;11.85;;;3.65;;
22415;SDS011;12204;50.600;4.608;2023-10-13T22:46:07;10.50;;;3.50;;
22415;SDS011;12204;50.600;4.608;2023-10-13T22:51:11;9.60;;;3.53;;
22415;SDS011;12204;50.600;4.608;2023-10-13T22:56:17;11.23;;;3.65;;
22415;SDS011;12204;50.600;4.608;2023-10-13T23:01:22;7.63;;;3.03;;
22415;SDS011;12204;50.600;4.608;2023-10-13T23:06:26;7.60;;;3.35;;
22415;SDS011;12204;50.600;4.608;2023-10-13T23:11:34;8.23;;;3.00;;
22415;SDS011;12204;50.600;4.608;2023-10-13T23:16:40;6.38;;;3.20;;
22415;SDS011;12204;50.600;4.608;2023-10-13T23:21:47;10.48;;;3.28;;
22415;SDS011;12204;50.600;4.608;2023-10-13T23:26:52;8.57;;;3.15;;
22415;SDS011;12204;50.600;4.608;2023-10-13T23:31:56;10.38;;;3.22;;
22415;SDS011;12204;50.600;4.608;2023-10-13T23:37:00;10.27;;;2.97;;
22415;SDS011;12204;50.600;4.608;2023-10-13T23:42:11;9.02;;;3.03;;
22415;SDS011;12204;50.600;4.608;2023-10-13T23:47:25;8.27;;;3.13;;
22415;SDS011;12204;50.600;4.608;2023-10-13T23:52:29;7.07;;;2.85;;
22415;SDS011;12204;50.600;4.608;2023-10-13T23:57:35;8.00;;;2.75;;
